sensor_id;sensor_type;location;lat;lon;timestamp;pressure;altitude;pressure_sealevel;temperature;humidity
27712;BME280;2377;51.734;8.950;2024-03-02T00:01:42;96630.22;;;7.12;88.16
27712;BME280;2377;51.734;8.950;2024-03-02T00:04:09;96627.69;;;7.12;88.31
27712;BME280;2377;51.734;8.950;2024-03-02T00:06:36;96623.81;;;7.09;87.82
27712;BME280;2377;51.734;8.950;2024-03-02T00:09:04;96624.56;;;7.10;87.94
27712;BME280;2377;51.734;8.950;2024-03-02T00:11:35;96612.88;;;7.09;88.05
27712;BME280;2377;51.734;8.950;2024-03-02T00:14:03;96614.09;;;7.06;87.99
27712;BME280;2377;51.734;8.950;2024-03-02T00:16:32;96610.78;;;7.06;87.68
27712;BME280;2377;51.734;8.950;2024-03-02T00:19:02;96612.53;;;7.05;87.57
27712;BME280;2377;51.734;8.950;2024-03-02T00:21:35;96612.22;;;7.02;87.52
27712;BME280;2377;51.734;8.950;2024-03-02T00:24:18;96609.09;;;6.99;88.11
27712;BME280;2377;51.734;8.950;2024-03-02T00:26:47;96619.47;;;6.98;87.78
27712;BME280;2377;51.734;8.950;2024-03-02T00:29:17;96617.59;;;6.93;87.81
27712;BME280;2377;51.734;8.950;2024-03-02T00:31:48;96617.59;;;6.93;87.86
27712;BME280;2377;51.734;8.950;2024-03-02T00:34:15;96625.22;;;6.93;87.69
27712;BME280;2377;51.734;8.950;2024-03-02T00:36:45;96618.81;;;6.91;87.68
27712;BME280;2377;51.734;8.950;2024-03-02T00:39:14;96621.03;;;6.87;87.80
27712;BME280;2377;51.734;8.950;2024-03-02T00:41:42;96620.66;;;6.84;87.66
27712;BME280;2377;51.734;8.950;2024-03-02T00:44:12;96622.09;;;6.80;87.78
27712;BME280;2377;51.734;8.950;2024-03-02T00:46:41;96613.94;;;6.77;88.05
27712;BME280;2377;51.734;8.950;2024-03-02T00:49:20;96618.22;;;6.77;87.63
27712;BME280;2377;51.734;8.950;2024-03-02T00:51:49;96615.56;;;6.72;88.12
27712;BME280;2377;51.734;8.950;2024-03-02T00:54:21;96609.34;;;6.68;87.54
27712;BME280;2377;51.734;8.950;2024-03-02T00:56:50;96608.28;;;6.64;88.28
27712;BME280;2377;51.734;8.950;2024-03-02T00:59:18;96602.41;;;6.63;88.16
27712;BME280;2377;51.734;8.950;2024-03-02T01:01:48;96604.97;;;6.63;88.46
27712;BME280;2377;51.734;8.950;2024-03-02T01:04:16;96604.16;;;6.63;88.53
27712;BME280;2377;51.734;8.950;2024-03-02T01:06:44;96602.63;;;6.62;88.48
27712;BME280;2377;51.734;8.950;2024-03-02T01:09:11;96597.56;;;6.62;88.39
27712;BME280;2377;51.734;8.950;2024-03-02T01:11:39;96598.53;;;6.61;88.37
27712;BME280;2377;51.734;8.950;2024-03-02T01:14:07;96594.44;;;6.60;88.88
27712;BME280;2377;51.734;8.950;2024-03-02T01:16:35;96588.81;;;6.57;88.62
27712;BME280;2377;51.734;8.950;2024-03-02T01:19:03;96592.56;;;6.55;88.96
27712;BME280;2377;51.734;8.950;2024-03-02T01:21:31;96588.69;;;6.52;89.01
27712;BME280;2377;51.734;8.950;2024-03-02T01:24:00;96590.22;;;6.53;89.48
27712;BME280;2377;51.734;8.950;2024-03-02T01:26:29;96585.59;;;6.50;89.60
27712;BME280;2377;51.734;8.950;2024-03-02T01:28:56;96579.19;;;6.48;89.47
27712;BME280;2377;51.734;8.950;2024-03-02T01:31:23;96582.50;;;6.48;89.82
27712;BME280;2377;51.734;8.950;2024-03-02T01:33:53;96576.44;;;6.49;89.39
27712;BME280;2377;51.734;8.950;2024-03-02T01:36:20;96577.88;;;6.45;89.68
27712;BME280;2377;51.734;8.950;2024-03-02T01:38:49;96574.31;;;6.46;89.13
27712;BME280;2377;51.734;8.950;2024-03-02T01:41:16;96573.75;;;6.44;89.70
27712;BME280;2377;51.734;8.950;2024-03-02T01:43:46;96576.28;;;6.44;89.91
27712;BME280;2377;51.734;8.950;2024-03-02T01:46:13;96582.94;;;6.45;90.11
27712;BME280;2377;51.734;8.950;2024-03-02T01:48:40;96582.94;;;6.45;90.01
27712;BME280;2377;51.734;8.950;2024-03-02T01:51:08;96581.38;;;6.44;90.01
27712;BME280;2377;51.734;8.950;2024-03-02T01:53:36;96580.59;;;6.44;89.83
27712;BME280;2377;51.734;8.950;2024-03-02T01:56:05;96579.84;;;6.43;89.98
27712;BME280;2377;51.734;8.950;2024-03-02T01:58:33;96579.63;;;6.45;90.72
27712;BME280;2377;51.734;8.950;2024-03-02T02:01:00;96575.97;;;6.41;90.64
27712;BME280;2377;51.734;8.950;2024-03-02T02:03:28;96577.50;;;6.42;90.64
27712;BME280;2377;51.734;8.950;2024-03-02T02:05:55;96567.91;;;6.44;90.88
27712;BME280;2377;51.734;8.950;2024-03-02T02:08:25;96571.88;;;6.40;91.26
27712;BME280;2377;51.734;8.950;2024-03-02T02:10:53;96565.25;;;6.39;91.40
27712;BME280;2377;51.734;8.950;2024-03-02T02:13:21;96561.94;;;6.38;90.97
27712;BME280;2377;51.734;8.950;2024-03-02T02:15:48;96550.25;;;6.37;91.65
27712;BME280;2377;51.734;8.950;2024-03-02T02:18:19;96558.09;;;6.35;91.38
27712;BME280;2377;51.734;8.950;2024-03-02T02:20:46;96550.69;;;6.34;91.67
27712;BME280;2377;51.734;8.950;2024-03-02T02:23:17;96538.44;;;6.31;92.66
27712;BME280;2377;51.734;8.950;2024-03-02T02:25:44;96539.19;;;6.31;92.22
27712;BME280;2377;51.734;8.950;2024-03-02T02:28:11;96535.34;;;6.29;92.96
27712;BME280;2377;51.734;8.950;2024-03-02T02:30:38;96531.78;;;6.30;92.81
27712;BME280;2377;51.734;8.950;2024-03-02T02:33:05;96529.81;;;6.32;92.54
27712;BME280;2377;51.734;8.950;2024-03-02T02:35:32;96534.69;;;6.33;92.36
27712;BME280;2377;51.734;8.950;2024-03-02T02:38:02;96533.34;;;6.31;92.43
27712;BME280;2377;51.734;8.950;2024-03-02T02:40:32;96528.28;;;6.31;92.42
27712;BME280;2377;51.734;8.950;2024-03-02T02:42:59;96529.56;;;6.22;93.67
27712;BME280;2377;51.734;8.950;2024-03-02T02:45:27;96530.25;;;6.29;93.16
27712;BME280;2377;51.734;8.950;2024-03-02T02:47:55;96536.09;;;6.29;92.84
27712;BME280;2377;51.734;8.950;2024-03-02T02:50:22;96544.72;;;6.28;92.84
27712;BME280;2377;51.734;8.950;2024-03-02T02:52:51;96552.31;;;6.28;92.85
27712;BME280;2377;51.734;8.950;2024-03-02T02:55:18;96537.88;;;6.29;92.82
27712;BME280;2377;51.734;8.950;2024-03-02T02:57:47;96531.69;;;6.25;93.10
27712;BME280;2377;51.734;8.950;2024-03-02T03:00:16;96531.91;;;6.23;93.06
27712;BME280;2377;51.734;8.950;2024-03-02T03:02:48;96530.56;;;6.21;92.89
27712;BME280;2377;51.734;8.950;2024-03-02T03:05:16;96520.41;;;6.21;92.93
27712;BME280;2377;51.734;8.950;2024-03-02T03:07:44;96528.25;;;6.19;93.09
27712;BME280;2377;51.734;8.950;2024-03-02T03:10:11;96520.28;;;6.16;92.81
27712;BME280;2377;51.734;8.950;2024-03-02T03:12:40;96517.75;;;6.16;93.24
27712;BME280;2377;51.734;8.950;2024-03-02T03:15:11;96521.28;;;6.14;93.63
27712;BME280;2377;51.734;8.950;2024-03-02T03:17:38;96512.47;;;6.17;93.75
27712;BME280;2377;51.734;8.950;2024-03-02T03:20:08;96511.16;;;6.14;93.69
27712;BME280;2377;51.734;8.950;2024-03-02T03:22:36;96524.38;;;6.17;93.60
27712;BME280;2377;51.734;8.950;2024-03-02T03:25:06;96522.06;;;6.15;93.58
27712;BME280;2377;51.734;8.950;2024-03-02T03:27:34;96535.50;;;6.16;93.41
27712;BME280;2377;51.734;8.950;2024-03-02T03:30:03;96523.06;;;6.14;93.76
27712;BME280;2377;51.734;8.950;2024-03-02T03:32:33;96524.03;;;6.13;93.85
27712;BME280;2377;51.734;8.950;2024-03-02T03:35:01;96522.25;;;6.13;93.17
27712;BME280;2377;51.734;8.950;2024-03-02T03:37:28;96519.72;;;6.13;93.44
27712;BME280;2377;51.734;8.950;2024-03-02T03:40:02;96520.72;;;6.12;93.77
27712;BME280;2377;51.734;8.950;2024-03-02T03:42:34;96524.25;;;6.11;93.40
27712;BME280;2377;51.734;8.950;2024-03-02T03:45:02;96528.78;;;6.09;93.66
27712;BME280;2377;51.734;8.950;2024-03-02T03:47:32;96524.66;;;6.08;94.07
27712;BME280;2377;51.734;8.950;2024-03-02T03:50:03;96524.91;;;6.07;93.87
27712;BME280;2377;51.734;8.950;2024-03-02T03:52:34;96525.13;;;6.05;93.57
27712;BME280;2377;51.734;8.950;2024-03-02T03:55:02;96512.88;;;6.02;93.62
27712;BME280;2377;51.734;8.950;2024-03-02T03:57:29;96516.38;;;6.01;93.60
27712;BME280;2377;51.734;8.950;2024-03-02T03:59:56;96512.50;;;5.99;93.36
27712;BME280;2377;51.734;8.950;2024-03-02T04:02:24;96516.25;;;5.96;93.45
27712;BME280;2377;51.734;8.950;2024-03-02T04:04:53;96520.75;;;5.94;93.35
27712;BME280;2377;51.734;8.950;2024-03-02T04:07:20;96513.72;;;5.96;93.63
27712;BME280;2377;51.734;8.950;2024-03-02T04:09:47;96512.19;;;5.95;93.82
27712;BME280;2377;51.734;8.950;2024-03-02T04:12:16;96513.91;;;5.95;93.96
27712;BME280;2377;51.734;8.950;2024-03-02T04:14:44;96503.56;;;5.96;94.07
27712;BME280;2377;51.734;8.950;2024-03-02T04:17:11;96513.50;;;5.98;94.22
27712;BME280;2377;51.734;8.950;2024-03-02T04:19:39;96510.19;;;5.97;94.14
27712;BME280;2377;51.734;8.950;2024-03-02T04:22:07;96519.78;;;5.95;94.68
27712;BME280;2377;51.734;8.950;2024-03-02T04:24:35;96513.72;;;5.96;95.57
27712;BME280;2377;51.734;8.950;2024-03-02T04:27:04;96532.03;;;5.98;95.04
27712;BME280;2377;51.734;8.950;2024-03-02T04:29:34;96525.03;;;5.93;96.07
27712;BME280;2377;51.734;8.950;2024-03-02T04:32:01;96529.28;;;6.00;95.77
27712;BME280;2377;51.734;8.950;2024-03-02T04:34:30;96537.66;;;6.00;95.07
27712;BME280;2377;51.734;8.950;2024-03-02T04:36:57;96537.44;;;6.02;95.08
27712;BME280;2377;51.734;8.950;2024-03-02T04:39:26;96536.66;;;6.01;95.90
27712;BME280;2377;51.734;8.950;2024-03-02T04:41:53;96535.69;;;6.02;95.82
27712;BME280;2377;51.734;8.950;2024-03-02T04:44:21;96538.22;;;6.02;95.96
27712;BME280;2377;51.734;8.950;2024-03-02T04:46:49;96537.09;;;5.98;96.54
27712;BME280;2377;51.734;8.950;2024-03-02T04:49:17;96539.19;;;6.01;96.37
27712;BME280;2377;51.734;8.950;2024-03-02T04:51:47;96531.38;;;6.03;96.40
27712;BME280;2377;51.734;8.950;2024-03-02T04:54:14;96530.38;;;6.04;96.54
27712;BME280;2377;51.734;8.950;2024-03-02T04:56:44;96532.16;;;6.03;96.17
27712;BME280;2377;51.734;8.950;2024-03-02T04:59:15;96523.00;;;6.02;96.50
27712;BME280;2377;51.734;8.950;2024-03-02T05:01:44;96519.91;;;6.00;97.37
27712;BME280;2377;51.734;8.950;2024-03-02T05:04:11;96514.84;;;6.00;97.27
27712;BME280;2377;51.734;8.950;2024-03-02T05:06:39;96519.16;;;6.00;96.71
27712;BME280;2377;51.734;8.950;2024-03-02T05:09:06;96533.16;;;6.02;96.89
27712;BME280;2377;51.734;8.950;2024-03-02T05:11:40;96530.81;;;6.01;96.88
27712;BME280;2377;51.734;8.950;2024-03-02T05:14:40;96534.56;;;5.98;96.86
27712;BME280;2377;51.734;8.950;2024-03-02T05:17:08;96537.09;;;5.98;96.58
27712;BME280;2377;51.734;8.950;2024-03-02T05:19:37;96543.72;;;5.99;96.96
27712;BME280;2377;51.734;8.950;2024-03-02T05:22:05;96543.72;;;5.99;96.84
27712;BME280;2377;51.734;8.950;2024-03-02T05:24:33;96548.00;;;5.99;97.09
27712;BME280;2377;51.734;8.950;2024-03-02T05:27:00;96546.47;;;5.98;96.58
27712;BME280;2377;51.734;8.950;2024-03-02T05:29:27;96550.75;;;5.97;96.90
27712;BME280;2377;51.734;8.950;2024-03-02T05:31:56;96544.91;;;5.97;97.10
27712;BME280;2377;51.734;8.950;2024-03-02T05:34:23;96545.69;;;5.97;97.04
27712;BME280;2377;51.734;8.950;2024-03-02T05:36:50;96550.00;;;5.97;97.28
27712;BME280;2377;51.734;8.950;2024-03-02T05:39:17;96543.94;;;5.98;97.17
27712;BME280;2377;51.734;8.950;2024-03-02T05:41:45;96545.69;;;5.97;97.39
27712;BME280;2377;51.734;8.950;2024-03-02T05:44:12;96548.00;;;5.99;97.42
27712;BME280;2377;51.734;8.950;2024-03-02T05:46:41;96550.75;;;5.97;97.81
27712;BME280;2377;51.734;8.950;2024-03-02T05:49:12;96549.22;;;5.96;97.82
27712;BME280;2377;51.734;8.950;2024-03-02T05:51:39;96552.75;;;5.95;97.73
27712;BME280;2377;51.734;8.950;2024-03-02T05:54:07;96548.06;;;5.92;97.76
27712;BME280;2377;51.734;8.950;2024-03-02T05:56:35;96558.00;;;5.93;97.69
27712;BME280;2377;51.734;8.950;2024-03-02T05:59:03;96544.00;;;5.91;97.85
27712;BME280;2377;51.734;8.950;2024-03-02T06:01:38;96551.38;;;5.92;98.44
27712;BME280;2377;51.734;8.950;2024-03-02T06:04:09;96556.25;;;5.94;97.86
27712;BME280;2377;51.734;8.950;2024-03-02T06:06:39;96562.31;;;5.93;98.15
27712;BME280;2377;51.734;8.950;2024-03-02T06:09:09;96564.72;;;5.88;98.58
27712;BME280;2377;51.734;8.950;2024-03-02T06:11:40;96567.56;;;5.91;98.01
27712;BME280;2377;51.734;8.950;2024-03-02T06:14:09;96570.31;;;5.90;98.07
27712;BME280;2377;51.734;8.950;2024-03-02T06:16:36;96563.91;;;5.87;97.99
27712;BME280;2377;51.734;8.950;2024-03-02T06:19:03;96573.84;;;5.89;98.35
27712;BME280;2377;51.734;8.950;2024-03-02T06:21:31;96582.22;;;5.89;98.36
27712;BME280;2377;51.734;8.950;2024-03-02T06:23:59;96575.63;;;5.88;98.39
27712;BME280;2377;51.734;8.950;2024-03-02T06:26:27;96575.38;;;5.90;98.35
27712;BME280;2377;51.734;8.950;2024-03-02T06:28:55;96580.47;;;5.90;97.95
27712;BME280;2377;51.734;8.950;2024-03-02T06:31:23;96579.69;;;5.89;98.31
27712;BME280;2377;51.734;8.950;2024-03-02T06:33:51;96577.16;;;5.89;98.38
27712;BME280;2377;51.734;8.950;2024-03-02T06:36:21;96575.38;;;5.90;98.51
27712;BME280;2377;51.734;8.950;2024-03-02T06:38:51;96576.38;;;5.89;98.09
27712;BME280;2377;51.734;8.950;2024-03-02T06:41:19;96578.50;;;5.92;98.48
27712;BME280;2377;51.734;8.950;2024-03-02T06:43:47;96580.06;;;5.93;98.16
27712;BME280;2377;51.734;8.950;2024-03-02T06:46:15;96584.56;;;5.91;98.51
27712;BME280;2377;51.734;8.950;2024-03-02T06:48:42;96590.97;;;5.93;98.84
27712;BME280;2377;51.734;8.950;2024-03-02T06:51:09;96593.31;;;5.95;98.98
27712;BME280;2377;51.734;8.950;2024-03-02T06:53:36;96588.59;;;5.99;99.12
27712;BME280;2377;51.734;8.950;2024-03-02T06:56:06;96585.22;;;6.05;98.67
27712;BME280;2377;51.734;8.950;2024-03-02T06:58:35;96590.63;;;6.08;98.55
27712;BME280;2377;51.734;8.950;2024-03-02T07:01:05;96596.13;;;6.05;99.23
27712;BME280;2377;51.734;8.950;2024-03-02T07:03:33;96596.19;;;6.17;98.95
27712;BME280;2377;51.734;8.950;2024-03-02T07:06:00;96587.94;;;6.22;99.19
27712;BME280;2377;51.734;8.950;2024-03-02T07:08:28;96587.06;;;6.28;98.64
27712;BME280;2377;51.734;8.950;2024-03-02T07:10:56;96592.28;;;6.33;98.68
27712;BME280;2377;51.734;8.950;2024-03-02T07:13:24;96597.91;;;6.35;98.27
27712;BME280;2377;51.734;8.950;2024-03-02T07:15:53;96593.59;;;6.35;98.25
27712;BME280;2377;51.734;8.950;2024-03-02T07:18:50;96588.31;;;6.37;98.54
27712;BME280;2377;51.734;8.950;2024-03-02T07:21:19;96595.72;;;6.39;98.16
27712;BME280;2377;51.734;8.950;2024-03-02T07:23:48;96591.41;;;6.39;98.35
27712;BME280;2377;51.734;8.950;2024-03-02T07:26:17;96594.50;;;6.41;99.00
27712;BME280;2377;51.734;8.950;2024-03-02T07:28:46;96605.97;;;6.44;98.27
27712;BME280;2377;51.734;8.950;2024-03-02T07:31:18;96607.19;;;6.41;98.23
27712;BME280;2377;51.734;8.950;2024-03-02T07:33:45;96621.44;;;6.42;98.57
27712;BME280;2377;51.734;8.950;2024-03-02T07:36:14;96620.00;;;6.46;98.28
27712;BME280;2377;51.734;8.950;2024-03-02T07:38:43;96628.94;;;6.49;98.26
27712;BME280;2377;51.734;8.950;2024-03-02T07:41:12;96625.06;;;6.46;98.05
27712;BME280;2377;51.734;8.950;2024-03-02T07:43:39;96624.50;;;6.44;98.27
27712;BME280;2377;51.734;8.950;2024-03-02T07:46:07;96626.06;;;6.45;98.57
27712;BME280;2377;51.734;8.950;2024-03-02T07:48:37;96636.22;;;6.45;98.44
27712;BME280;2377;51.734;8.950;2024-03-02T07:51:04;96627.22;;;6.49;98.66
27712;BME280;2377;51.734;8.950;2024-03-02T07:53:36;96635.22;;;6.46;98.35
27712;BME280;2377;51.734;8.950;2024-03-02T07:56:04;96630.38;;;6.45;98.62
27712;BME280;2377;51.734;8.950;2024-03-02T07:58:33;96643.19;;;6.50;98.63
27712;BME280;2377;51.734;8.950;2024-03-02T08:01:01;96634.81;;;6.49;98.22
27712;BME280;2377;51.734;8.950;2024-03-02T08:03:29;96630.84;;;6.53;98.23
27712;BME280;2377;51.734;8.950;2024-03-02T08:06:02;96627.66;;;6.58;97.94
27712;BME280;2377;51.734;8.950;2024-03-02T08:08:30;96641.78;;;6.54;98.38
27712;BME280;2377;51.734;8.950;2024-03-02T08:10:57;96644.88;;;6.56;98.38
27712;BME280;2377;51.734;8.950;2024-03-02T08:13:24;96642.13;;;6.57;98.44
27712;BME280;2377;51.734;8.950;2024-03-02T08:15:55;96642.69;;;6.60;97.94
27712;BME280;2377;51.734;8.950;2024-03-02T08:18:23;96647.13;;;6.64;97.82
27712;BME280;2377;51.734;8.950;2024-03-02T08:20:52;96654.09;;;6.69;97.66
27712;BME280;2377;51.734;8.950;2024-03-02T08:23:21;96657.47;;;6.63;97.85
27712;BME280;2377;51.734;8.950;2024-03-02T08:25:50;96657.75;;;6.73;97.62
27712;BME280;2377;51.734;8.950;2024-03-02T08:28:18;96661.38;;;6.77;97.73
27712;BME280;2377;51.734;8.950;2024-03-02T08:30:45;96653.56;;;6.78;96.97
27712;BME280;2377;51.734;8.950;2024-03-02T08:33:12;96656.88;;;6.79;97.48
27712;BME280;2377;51.734;8.950;2024-03-02T08:35:41;96661.31;;;6.84;97.01
27712;BME280;2377;51.734;8.950;2024-03-02T08:38:08;96657.00;;;6.84;97.13
27712;BME280;2377;51.734;8.950;2024-03-02T08:40:39;96651.25;;;6.89;96.67
27712;BME280;2377;51.734;8.950;2024-03-02T08:43:08;96655.69;;;6.93;96.53
27712;BME280;2377;51.734;8.950;2024-03-02T08:45:35;96650.53;;;7.00;97.57
27712;BME280;2377;51.734;8.950;2024-03-02T08:48:04;96645.34;;;7.07;96.24
27712;BME280;2377;51.734;8.950;2024-03-02T08:50:32;96639.50;;;7.18;96.08
27712;BME280;2377;51.734;8.950;2024-03-02T08:52:59;96646.69;;;7.33;97.01
27712;BME280;2377;51.734;8.950;2024-03-02T08:55:27;96653.88;;;7.48;95.23
27712;BME280;2377;51.734;8.950;2024-03-02T08:57:55;96665.16;;;7.63;95.21
27712;BME280;2377;51.734;8.950;2024-03-02T09:00:24;96659.50;;;7.73;94.81
27712;BME280;2377;51.734;8.950;2024-03-02T09:02:53;96650.13;;;7.86;93.26
27712;BME280;2377;51.734;8.950;2024-03-02T09:05:21;96660.59;;;8.01;93.75
27712;BME280;2377;51.734;8.950;2024-03-02T09:07:48;96660.91;;;8.16;92.01
27712;BME280;2377;51.734;8.950;2024-03-02T09:10:17;96665.28;;;8.33;92.60
27712;BME280;2377;51.734;8.950;2024-03-02T09:12:44;96672.66;;;8.58;92.07
27712;BME280;2377;51.734;8.950;2024-03-02T09:15:12;96666.59;;;8.76;92.22
27712;BME280;2377;51.734;8.950;2024-03-02T09:17:39;96673.34;;;8.82;89.35
27712;BME280;2377;51.734;8.950;2024-03-02T09:20:14;96672.03;;;8.96;90.18
27712;BME280;2377;51.734;8.950;2024-03-02T09:22:42;96676.84;;;9.09;89.08
27712;BME280;2377;51.734;8.950;2024-03-02T09:25:09;96674.34;;;9.15;88.08
27712;BME280;2377;51.734;8.950;2024-03-02T09:27:37;96668.19;;;9.10;87.82
27712;BME280;2377;51.734;8.950;2024-03-02T09:30:08;96678.69;;;9.31;88.61
27712;BME280;2377;51.734;8.950;2024-03-02T09:32:37;96668.31;;;9.55;88.45
27712;BME280;2377;51.734;8.950;2024-03-02T09:35:05;96679.78;;;9.69;87.12
27712;BME280;2377;51.734;8.950;2024-03-02T09:37:34;96682.03;;;9.87;86.05
27712;BME280;2377;51.734;8.950;2024-03-02T09:40:02;96685.03;;;10.01;84.86
27712;BME280;2377;51.734;8.950;2024-03-02T09:42:30;96688.44;;;10.07;82.89
27712;BME280;2377;51.734;8.950;2024-03-02T09:45:00;96683.38;;;10.12;83.20
27712;BME280;2377;51.734;8.950;2024-03-02T09:47:28;96670.06;;;10.10;80.14
27712;BME280;2377;51.734;8.950;2024-03-02T09:49:56;96670.25;;;10.25;82.03
27712;BME280;2377;51.734;8.950;2024-03-02T09:52:25;96656.66;;;10.42;81.27
27712;BME280;2377;51.734;8.950;2024-03-02T09:54:53;96659.44;;;10.62;81.63
27712;BME280;2377;51.734;8.950;2024-03-02T09:57:20;96663.25;;;10.87;80.67
27712;BME280;2377;51.734;8.950;2024-03-02T09:59:47;96658.72;;;10.94;78.32
27712;BME280;2377;51.734;8.950;2024-03-02T10:02:14;96660.53;;;10.98;76.90
27712;BME280;2377;51.734;8.950;2024-03-02T10:04:41;96664.94;;;11.03;77.41
27712;BME280;2377;51.734;8.950;2024-03-02T10:07:14;96662.94;;;11.10;76.55
27712;BME280;2377;51.734;8.950;2024-03-02T10:09:42;96669.66;;;11.21;76.57
27712;BME280;2377;51.734;8.950;2024-03-02T10:12:12;96680.03;;;11.37;75.98
27712;BME280;2377;51.734;8.950;2024-03-02T10:14:41;96676.50;;;11.43;75.96
27712;BME280;2377;51.734;8.950;2024-03-02T10:17:09;96681.66;;;11.53;76.48
27712;BME280;2377;51.734;8.950;2024-03-02T10:19:39;96676.38;;;11.65;75.86
27712;BME280;2377;51.734;8.950;2024-03-02T10:22:08;96679.19;;;11.69;74.01
27712;BME280;2377;51.734;8.950;2024-03-02T10:24:39;96678.72;;;11.72;74.71
27712;BME280;2377;51.734;8.950;2024-03-02T10:27:10;96677.09;;;11.60;73.95
27712;BME280;2377;51.734;8.950;2024-03-02T10:29:45;96667.63;;;11.61;73.33
27712;BME280;2377;51.734;8.950;2024-03-02T10:32:14;96675.59;;;11.64;73.60
27712;BME280;2377;51.734;8.950;2024-03-02T10:34:45;96667.91;;;11.64;73.17
27712;BME280;2377;51.734;8.950;2024-03-02T10:37:14;96670.22;;;11.66;71.89
27712;BME280;2377;51.734;8.950;2024-03-02T10:39:47;96678.13;;;11.59;72.81
27712;BME280;2377;51.734;8.950;2024-03-02T10:42:17;96666.66;;;11.67;73.42
27712;BME280;2377;51.734;8.950;2024-03-02T10:44:47;96665.38;;;11.70;74.04
27712;BME280;2377;51.734;8.950;2024-03-02T10:47:18;96667.97;;;11.75;73.68
27712;BME280;2377;51.734;8.950;2024-03-02T10:49:48;96670.56;;;11.80;74.00
27712;BME280;2377;51.734;8.950;2024-03-02T10:52:16;96671.13;;;11.87;73.67
27712;BME280;2377;51.734;8.950;2024-03-02T10:54:45;96668.59;;;11.92;74.56
27712;BME280;2377;51.734;8.950;2024-03-02T10:57:16;96662.47;;;11.93;71.76
27712;BME280;2377;51.734;8.950;2024-03-02T10:59:52;96679.34;;;11.89;73.66
27712;BME280;2377;51.734;8.950;2024-03-02T11:02:22;96679.88;;;11.96;73.54
27712;BME280;2377;51.734;8.950;2024-03-02T11:04:55;96681.19;;;12.04;74.43
27712;BME280;2377;51.734;8.950;2024-03-02T11:07:25;96687.13;;;12.10;73.61
27712;BME280;2377;51.734;8.950;2024-03-02T11:10:00;96692.25;;;12.10;72.01
27712;BME280;2377;51.734;8.950;2024-03-02T11:12:39;96696.56;;;12.04;72.16
27712;BME280;2377;51.734;8.950;2024-03-02T11:15:14;96694.28;;;12.08;72.38
27712;BME280;2377;51.734;8.950;2024-03-02T11:17:44;96691.00;;;12.17;71.79
27712;BME280;2377;51.734;8.950;2024-03-02T11:20:14;96685.34;;;12.15;71.82
27712;BME280;2377;51.734;8.950;2024-03-02T11:22:42;96686.09;;;12.16;71.34
27712;BME280;2377;51.734;8.950;2024-03-02T11:25:25;96677.94;;;12.19;74.02
27712;BME280;2377;51.734;8.950;2024-03-02T11:28:04;96679.53;;;12.30;74.54
27712;BME280;2377;51.734;8.950;2024-03-02T11:30:51;96675.97;;;12.41;75.13
27712;BME280;2377;51.734;8.950;2024-03-02T11:33:26;96674.44;;;12.51;74.56
27712;BME280;2377;51.734;8.950;2024-03-02T11:35:57;96662.91;;;12.53;71.88
27712;BME280;2377;51.734;8.950;2024-03-02T11:38:31;96661.16;;;12.54;73.42
27712;BME280;2377;51.734;8.950;2024-03-02T11:41:01;96658.06;;;12.57;72.08
27712;BME280;2377;51.734;8.950;2024-03-02T11:43:30;96656.03;;;12.59;72.39
27712;BME280;2377;51.734;8.950;2024-03-02T11:46:00;96661.41;;;12.62;70.69
27712;BME280;2377;51.734;8.950;2024-03-02T11:48:31;96665.00;;;12.66;72.93
27712;BME280;2377;51.734;8.950;2024-03-02T11:51:00;96660.41;;;12.74;71.52
27712;BME280;2377;51.734;8.950;2024-03-02T11:53:28;96662.19;;;12.63;68.26
27712;BME280;2377;51.734;8.950;2024-03-02T11:55:56;96654.50;;;12.68;70.30
27712;BME280;2377;51.734;8.950;2024-03-02T11:58:24;96658.09;;;12.72;71.66
27712;BME280;2377;51.734;8.950;2024-03-02T12:00:52;96663.25;;;12.82;72.28
27712;BME280;2377;51.734;8.950;2024-03-02T12:03:24;96657.09;;;12.83;70.42
27712;BME280;2377;51.734;8.950;2024-03-02T12:05:54;96652.47;;;12.90;71.44
27712;BME280;2377;51.734;8.950;2024-03-02T12:08:22;96648.66;;;12.98;70.72
27712;BME280;2377;51.734;8.950;2024-03-02T12:10:58;96653.50;;;13.00;68.00
27712;BME280;2377;51.734;8.950;2024-03-02T12:13:27;96656.59;;;13.02;69.47
27712;BME280;2377;51.734;8.950;2024-03-02T12:15:57;96642.47;;;13.04;69.98
27712;BME280;2377;51.734;8.950;2024-03-02T12:18:25;96659.94;;;13.13;69.82
27712;BME280;2377;51.734;8.950;2024-03-02T12:20:57;96655.56;;;13.23;70.81
27712;BME280;2377;51.734;8.950;2024-03-02T12:23:26;96647.34;;;13.21;70.30
27712;BME280;2377;51.734;8.950;2024-03-02T12:25:54;96652.50;;;13.26;68.41
27712;BME280;2377;51.734;8.950;2024-03-02T12:28:22;96647.13;;;13.28;69.11
27712;BME280;2377;51.734;8.950;2024-03-02T12:30:53;96646.34;;;13.27;68.42
27712;BME280;2377;51.734;8.950;2024-03-02T12:33:20;96644.03;;;13.31;68.76
27712;BME280;2377;51.734;8.950;2024-03-02T12:35:49;96641.72;;;13.35;69.70
27712;BME280;2377;51.734;8.950;2024-03-02T12:38:16;96650.47;;;13.34;67.85
27712;BME280;2377;51.734;8.950;2024-03-02T12:40:43;96644.28;;;13.35;65.27
27712;BME280;2377;51.734;8.950;2024-03-02T12:43:11;96651.97;;;13.40;66.15
27712;BME280;2377;51.734;8.950;2024-03-02T12:45:38;96645.31;;;13.44;66.59
27712;BME280;2377;51.734;8.950;2024-03-02T12:48:07;96653.25;;;13.47;67.60
27712;BME280;2377;51.734;8.950;2024-03-02T12:50:35;96641.44;;;13.51;67.46
27712;BME280;2377;51.734;8.950;2024-03-02T12:53:02;96654.78;;;13.53;65.17
27712;BME280;2377;51.734;8.950;2024-03-02T12:55:30;96639.16;;;13.50;64.76
27712;BME280;2377;51.734;8.950;2024-03-02T12:57:57;96633.50;;;13.48;63.14
27712;BME280;2377;51.734;8.950;2024-03-02T13:00:25;96634.78;;;13.50;63.41
27712;BME280;2377;51.734;8.950;2024-03-02T13:02:53;96631.16;;;13.51;64.95
27712;BME280;2377;51.734;8.950;2024-03-02T13:05:31;96638.88;;;13.62;65.62
27712;BME280;2377;51.734;8.950;2024-03-02T13:07:59;96630.91;;;13.58;63.87
27712;BME280;2377;51.734;8.950;2024-03-02T13:10:27;96632.69;;;13.63;64.42
27712;BME280;2377;51.734;8.950;2024-03-02T13:12:56;96628.84;;;13.60;64.30
27712;BME280;2377;51.734;8.950;2024-03-02T13:15:25;96626.78;;;13.62;63.82
27712;BME280;2377;51.734;8.950;2024-03-02T13:17:52;96628.09;;;13.49;62.51
27712;BME280;2377;51.734;8.950;2024-03-02T13:20:20;96627.06;;;13.56;62.60
27712;BME280;2377;51.734;8.950;2024-03-02T13:22:50;96624.78;;;13.44;62.08
27712;BME280;2377;51.734;8.950;2024-03-02T13:25:17;96620.13;;;13.51;62.39
27712;BME280;2377;51.734;8.950;2024-03-02T13:27:45;96623.97;;;13.53;64.35
27712;BME280;2377;51.734;8.950;2024-03-02T13:30:13;96623.97;;;13.59;65.72